createdAt,value
2023-01-19T00:00:21.305Z,93806.00
2023-01-19T00:01:21.233Z,93806.00
2023-01-19T00:02:21.330Z,93810.00
2023-01-19T00:03:21.216Z,93810.00
2023-01-19T00:04:21.206Z,93806.00
2023-01-19T00:05:21.209Z,93812.00
2023-01-19T00:06:21.321Z,93812.00
2023-01-19T00:07:21.181Z,93814.00
2023-01-19T00:54:41.863Z,93855.00
2023-01-19T00:55:42.768Z,93853.00
2023-01-19T00:56:42.800Z,93855.00
2023-01-19T00:57:42.777Z,93855.00
2023-01-19T00:58:42.751Z,93859.00
2023-01-19T00:59:42.740Z,93859.00
2023-01-19T01:00:42.769Z,93859.00
2023-01-19T01:01:45.916Z,93861.00
2023-01-19T01:02:43.042Z,93861.00
2023-01-19T01:03:42.696Z,93861.00
2023-01-19T01:04:42.695Z,93861.00
2023-01-19T01:05:42.707Z,93861.00
2023-01-19T01:06:42.677Z,93861.00
2023-01-19T01:07:42.664Z,93861.00
2023-01-19T01:08:42.653Z,93861.00
2023-01-19T01:09:42.678Z,93861.00
2023-01-19T01:10:42.667Z,93861.00
2023-01-19T01:11:42.635Z,93861.00
2023-01-19T01:12:54.911Z,93861.00
2023-01-19T01:13:42.614Z,93861.00
2023-01-19T01:14:42.642Z,93861.00
2023-01-19T01:15:42.590Z,93870.00
2023-01-19T01:16:42.671Z,93863.00
2023-01-19T01:17:42.604Z,93861.00
2023-01-19T01:18:42.565Z,93870.00
2023-01-19T01:19:42.561Z,93863.00
2023-01-19T01:20:42.549Z,93870.00
2023-01-19T01:21:42.538Z,93870.00
2023-01-19T01:22:42.573Z,93872.00
2023-01-19T01:23:42.523Z,93874.00
2023-01-19T01:24:42.538Z,93874.00
2023-01-19T01:25:42.509Z,93872.00
2023-01-19T01:26:42.525Z,93872.00
2023-01-19T01:27:42.567Z,93874.00
2023-01-19T01:28:42.479Z,93870.00
2023-01-19T01:29:42.472Z,93870.00
2023-01-19T01:30:42.459Z,93872.00
2023-01-19T01:31:42.551Z,93870.00
2023-01-19T01:32:42.439Z,93872.00
2023-01-19T01:33:42.439Z,93870.00
2023-01-19T01:34:42.423Z,93874.00
2023-01-19T01:35:42.413Z,93874.00
2023-01-19T01:36:42.398Z,93878.00
2023-01-19T01:37:42.426Z,93876.00
2023-01-19T01:38:42.387Z,93876.00
2023-01-19T01:39:42.380Z,93878.00
2023-01-19T01:40:42.368Z,93880.00
2023-01-19T01:41:42.364Z,93878.00
2023-01-19T01:42:42.441Z,93882.00
2023-01-19T01:43:42.342Z,93882.00
2023-01-19T01:44:42.334Z,93882.00
2023-01-19T01:45:42.345Z,93882.00
2023-01-19T01:46:42.378Z,93882.00
2023-01-19T01:47:42.303Z,93882.00
2023-01-19T01:48:42.299Z,93884.00
2023-01-19T01:49:42.286Z,93888.00
2023-01-19T01:50:42.289Z,93890.00
2023-01-19T01:51:42.265Z,93890.00
2023-01-19T01:52:42.260Z,93890.00
2023-01-19T01:53:42.280Z,93892.00
2023-01-19T01:54:42.246Z,93892.00
2023-01-19T01:55:42.238Z,93896.00
2023-01-19T01:56:42.231Z,93894.00
2023-01-19T01:57:42.231Z,93896.00
2023-01-19T01:58:42.239Z,93900.00
2023-01-19T01:59:42.193Z,93900.00
2023-01-19T02:00:42.185Z,93902.00
2023-01-19T02:01:42.411Z,93902.00
2023-01-19T02:02:42.172Z,93902.00
2023-01-19T02:03:42.393Z,93902.00
2023-01-19T02:04:42.150Z,93906.00
2023-01-19T02:05:42.143Z,93904.00
2023-01-19T02:06:42.131Z,93906.00
2023-01-19T02:07:42.124Z,93902.00
2023-01-19T02:08:42.119Z,93904.00
2023-01-19T02:09:42.103Z,93904.00
2023-01-19T02:10:42.099Z,93904.00
2023-01-19T02:11:42.087Z,93904.00
2023-01-19T02:12:42.108Z,93906.00
2023-01-19T02:13:42.067Z,93908.00
2023-01-19T02:14:42.085Z,93908.00
2023-01-19T02:15:42.051Z,93906.00
2023-01-19T02:16:42.062Z,93908.00
2023-01-19T02:17:42.041Z,93910.00
2023-01-19T02:18:42.025Z,93910.00
2023-01-19T02:19:42.018Z,93910.00
2023-01-19T02:20:42.040Z,93904.00
2023-01-19T02:21:41.993Z,93906.00
2023-01-19T02:22:41.994Z,93904.00
2023-01-19T02:23:41.993Z,93902.00
2023-01-19T02:24:41.971Z,93906.00
2023-01-19T02:25:41.969Z,93906.00
2023-01-19T02:26:41.955Z,93904.00
2023-01-19T02:27:41.941Z,93906.00
2023-01-19T02:28:41.935Z,93906.00
2023-01-19T02:29:41.926Z,93908.00
2023-01-19T02:30:42.037Z,93906.00
2023-01-19T02:31:41.902Z,93906.00
2023-01-19T02:32:41.899Z,93908.00
2023-01-19T02:33:41.886Z,93908.00
2023-01-19T02:34:41.897Z,93912.00
2023-01-19T02:35:41.867Z,93912.00
2023-01-19T02:36:41.861Z,93912.00
2023-01-19T02:37:41.850Z,93912.00
2023-01-19T02:38:41.846Z,93910.00
2023-01-19T02:39:41.859Z,93910.00
2023-01-19T02:40:41.834Z,93906.00
2023-01-19T02:41:41.818Z,93906.00
2023-01-19T02:42:41.809Z,93904.00
2023-01-19T02:43:41.797Z,93902.00
2023-01-19T02:44:41.786Z,93902.00
2023-01-19T02:45:41.817Z,93904.00
2023-01-19T02:46:41.801Z,93904.00
2023-01-19T02:47:41.760Z,93906.00
2023-01-19T02:48:41.754Z,93910.00
2023-01-19T02:49:41.744Z,93908.00
2023-01-19T02:50:41.744Z,93910.00
2023-01-19T02:51:41.720Z,93912.00
2023-01-19T02:52:41.712Z,93912.00
2023-01-19T02:53:41.712Z,93908.00
2023-01-19T02:54:41.696Z,93910.00
2023-01-19T02:55:41.688Z,93912.00
2023-01-19T02:56:41.676Z,93910.00
2023-01-19T02:57:41.669Z,93910.00
2023-01-19T02:58:41.667Z,93910.00
2023-01-19T02:59:41.648Z,93908.00
2023-01-19T03:00:41.645Z,93908.00
2023-01-19T03:01:41.817Z,93906.00
2023-01-19T03:02:41.752Z,93904.00
2023-01-19T03:03:41.664Z,93908.00
2023-01-19T03:04:41.610Z,93904.00
2023-01-19T03:05:41.593Z,93904.00
2023-01-19T03:06:41.586Z,93904.00
2023-01-19T03:07:41.589Z,93902.00
2023-01-19T03:08:41.789Z,93900.00
2023-01-19T03:09:41.568Z,93902.00
2023-01-19T03:10:41.551Z,93898.00
2023-01-19T03:11:41.540Z,93898.00
2023-01-19T03:12:41.542Z,93896.00
2023-01-19T03:13:41.521Z,93896.00
2023-01-19T03:14:41.522Z,93896.00
2023-01-19T03:15:41.544Z,93894.00
2023-01-19T03:16:41.530Z,93898.00
2023-01-19T03:17:41.492Z,93898.00
2023-01-19T03:18:41.505Z,93898.00
2023-01-19T03:19:41.467Z,93898.00
2023-01-19T03:20:41.459Z,93904.00
2023-01-19T03:21:41.449Z,93902.00
2023-01-19T03:22:41.449Z,93902.00
2023-01-19T03:23:41.448Z,93908.00
2023-01-19T03:24:41.427Z,93906.00
2023-01-19T03:25:41.413Z,93906.00
2023-01-19T03:26:41.409Z,93908.00
2023-01-19T03:27:41.432Z,93910.00
2023-01-19T03:28:41.390Z,93914.00
2023-01-19T03:29:41.383Z,93916.00
2023-01-19T03:30:41.401Z,93917.00
2023-01-19T03:31:41.358Z,93916.00
2023-01-19T03:32:41.412Z,93917.00
2023-01-19T03:33:41.346Z,93917.00
2023-01-19T03:34:41.359Z,93917.00
2023-01-19T03:35:41.322Z,93921.00
2023-01-19T03:36:41.315Z,93917.00
2023-01-19T03:37:41.316Z,93921.00
2023-01-19T03:38:41.309Z,93921.00
2023-01-19T03:39:41.315Z,93921.00
2023-01-19T03:40:41.290Z,93925.00
2023-01-19T03:41:41.267Z,93925.00
2023-01-19T03:42:41.263Z,93925.00
2023-01-19T03:43:41.249Z,93927.00
2023-01-19T03:44:41.242Z,93925.00
2023-01-19T03:45:41.246Z,93925.00
2023-01-19T03:46:41.229Z,93923.00
2023-01-19T03:47:41.217Z,93921.00
2023-01-19T03:48:41.215Z,93925.00
2023-01-19T03:49:41.198Z,93923.00
2023-01-19T03:50:41.208Z,93927.00
2023-01-19T03:51:41.191Z,93927.00
2023-01-19T03:52:41.168Z,93927.00
2023-01-19T03:53:41.160Z,93929.00
2023-01-19T03:54:41.172Z,93931.00
2023-01-19T03:55:41.164Z,93931.00
2023-01-19T03:56:40.136Z,93933.00
2023-01-19T03:57:41.124Z,93937.00
2023-01-19T03:58:41.113Z,93935.00
2023-01-19T03:59:41.109Z,93935.00
2023-01-19T04:00:41.102Z,93937.00
2023-01-19T04:01:41.230Z,93941.00
2023-01-19T04:02:41.155Z,93939.00
2023-01-19T04:03:41.081Z,93941.00
2023-01-19T04:04:41.059Z,93941.00
2023-01-19T04:05:41.079Z,93943.00
2023-01-19T04:06:41.085Z,93945.00
2023-01-19T04:07:41.071Z,93947.00
2023-01-19T04:08:41.028Z,93945.00
2023-01-19T04:09:41.011Z,93947.00
2023-01-19T04:10:41.004Z,93949.00
2023-01-19T04:11:41.001Z,93947.00
2023-01-19T04:12:41.007Z,93949.00
2023-01-19T04:13:40.993Z,93951.00
2023-01-19T04:14:40.968Z,93955.00
2023-01-19T04:15:40.987Z,93951.00
2023-01-19T04:16:40.950Z,93953.00
2023-01-19T04:17:40.951Z,93953.00
2023-01-19T04:18:40.939Z,93955.00
2023-01-19T04:19:40.930Z,93955.00
2023-01-19T04:20:40.939Z,93953.00
2023-01-19T04:21:40.902Z,93955.00
2023-01-19T04:22:40.944Z,93953.00
2023-01-19T04:23:40.892Z,93957.00
2023-01-19T04:24:40.883Z,93955.00
2023-01-19T04:25:40.877Z,93955.00
2023-01-19T04:26:40.865Z,93955.00
2023-01-19T04:27:40.858Z,93957.00
2023-01-19T04:28:40.843Z,93955.00
2023-01-19T04:29:40.842Z,93957.00
2023-01-19T04:30:40.831Z,93953.00
2023-01-19T04:31:41.419Z,93953.00
2023-01-19T04:32:40.811Z,93955.00
2023-01-19T04:33:40.799Z,93955.00
2023-01-19T04:34:40.800Z,93955.00
2023-01-19T04:35:40.782Z,93953.00
2023-01-19T04:36:40.765Z,93955.00
2023-01-19T04:37:40.779Z,93957.00
2023-01-19T04:38:40.789Z,93955.00
2023-01-19T04:39:40.749Z,93957.00
2023-01-19T04:40:40.742Z,93957.00
2023-01-19T04:41:40.736Z,93957.00
2023-01-19T04:42:40.712Z,93957.00
2023-01-19T04:43:40.709Z,93957.00
2023-01-19T04:44:40.712Z,93959.00
2023-01-19T04:45:40.683Z,93961.00
2023-01-19T04:46:40.717Z,93957.00
2023-01-19T04:47:40.667Z,93957.00
2023-01-19T04:48:42.055Z,93957.00
2023-01-19T04:49:40.775Z,93957.00
2023-01-19T04:50:40.705Z,93959.00
2023-01-19T04:51:41.493Z,93959.00
2023-01-19T04:52:40.682Z,93955.00
2023-01-19T04:53:40.690Z,93955.00
2023-01-19T04:54:40.697Z,93959.00
2023-01-19T04:55:40.698Z,93959.00
2023-01-19T04:56:40.655Z,93959.00
2023-01-19T04:57:40.647Z,93955.00
2023-01-19T04:58:40.628Z,93957.00
2023-01-19T04:59:40.618Z,93957.00
2023-01-19T05:00:41.427Z,93957.00
2023-01-19T05:01:40.635Z,93961.00
2023-01-19T05:02:40.617Z,93963.00
2023-01-19T05:03:40.587Z,93965.00
2023-01-19T05:04:40.574Z,93967.00
2023-01-19T05:05:40.569Z,93967.00
2023-01-19T05:06:40.550Z,93969.00
2023-01-19T05:07:40.543Z,93969.00
2023-01-19T05:08:39.556Z,93969.00
2023-01-19T05:09:40.528Z,93971.00
2023-01-19T05:10:40.595Z,93971.00
2023-01-19T05:11:40.518Z,93972.00
2023-01-19T05:12:40.510Z,93972.00
2023-01-19T05:13:40.490Z,93974.00
2023-01-19T05:14:40.480Z,93978.00
2023-01-19T05:15:40.475Z,93978.00
2023-01-19T05:16:40.465Z,93980.00
2023-01-19T05:17:40.464Z,93978.00
2023-01-19T05:18:40.445Z,93978.00
2023-01-19T05:19:40.443Z,93978.00
2023-01-19T05:20:40.462Z,93982.00
2023-01-19T05:21:40.416Z,93982.00
2023-01-19T05:22:40.411Z,93982.00
2023-01-19T05:23:40.399Z,93984.00
2023-01-19T05:24:40.393Z,93986.00
2023-01-19T05:25:40.400Z,93984.00
2023-01-19T05:26:40.399Z,93986.00
2023-01-19T05:27:40.369Z,93990.00
2023-01-19T05:28:40.352Z,93992.00
2023-01-19T05:29:40.348Z,93994.00
2023-01-19T05:30:40.395Z,93994.00
2023-01-19T05:31:40.370Z,93994.00
2023-01-19T05:32:40.320Z,93996.00
2023-01-19T05:33:40.309Z,93996.00
2023-01-19T05:34:40.313Z,93996.00
2023-01-19T05:35:40.301Z,93996.00
2023-01-19T05:36:40.286Z,93994.00
2023-01-19T05:37:40.269Z,93998.00
2023-01-19T05:38:40.941Z,93996.00
2023-01-19T05:39:40.292Z,94000.00
2023-01-19T05:40:40.258Z,94000.00
2023-01-19T05:41:40.246Z,94000.00
2023-01-19T05:42:40.310Z,93998.00
2023-01-19T05:43:40.217Z,93998.00
2023-01-19T05:44:40.212Z,93998.00
2023-01-19T05:45:40.198Z,94000.00
2023-01-19T05:46:40.228Z,94000.00
2023-01-19T05:47:40.237Z,93998.00
2023-01-19T05:48:40.185Z,94000.00
2023-01-19T05:49:40.168Z,94000.00
2023-01-19T05:50:40.163Z,94002.00
2023-01-19T05:51:40.147Z,94004.00
2023-01-19T05:52:40.156Z,94004.00
2023-01-19T05:53:40.139Z,94008.00
2023-01-19T05:54:40.119Z,94006.00
2023-01-19T05:55:40.108Z,94010.00
2023-01-19T05:56:40.107Z,94010.00
2023-01-19T05:57:40.094Z,94014.00
2023-01-19T05:58:40.189Z,94014.00
2023-01-19T05:59:40.078Z,94019.00
2023-01-19T06:00:40.067Z,94018.00
2023-01-19T06:01:40.522Z,94018.00
2023-01-19T06:02:40.070Z,94023.00
2023-01-19T06:03:40.064Z,94025.00
2023-01-19T06:04:40.034Z,94025.00
2023-01-19T06:05:40.015Z,94025.00
2023-01-19T06:06:40.009Z,94025.00
2023-01-19T06:07:40.012Z,94027.00
2023-01-19T06:08:39.999Z,94023.00
2023-01-19T06:09:39.985Z,94025.00
2023-01-19T06:10:39.969Z,94025.00
2023-01-19T06:11:39.961Z,94023.00
2023-01-19T06:12:39.950Z,94023.00
2023-01-19T06:13:41.394Z,94025.00
2023-01-19T06:14:39.973Z,94025.00
2023-01-19T06:15:39.932Z,94027.00
2023-01-19T06:16:39.968Z,94025.00
2023-01-19T06:17:39.906Z,94027.00
2023-01-19T06:18:39.970Z,94029.00
2023-01-19T06:19:39.890Z,94027.00
2023-01-19T06:20:39.882Z,94027.00
2023-01-19T06:21:39.888Z,94025.00
2023-01-19T06:22:39.874Z,94045.00
2023-01-19T06:23:39.964Z,94033.00
2023-01-19T06:24:39.845Z,94035.00
2023-01-19T06:25:39.836Z,94037.00
2023-01-19T06:26:39.845Z,94035.00
2023-01-19T06:27:39.819Z,94039.00
2023-01-19T06:28:39.962Z,94039.00
2023-01-19T06:29:39.797Z,94037.00
2023-01-19T06:30:39.860Z,94039.00
2023-01-19T06:31:39.836Z,94039.00
2023-01-19T06:32:39.772Z,94037.00
2023-01-19T06:33:39.762Z,94039.00
2023-01-19T06:34:39.750Z,94039.00
2023-01-19T06:35:39.736Z,94039.00
2023-01-19T06:36:39.738Z,94039.00
2023-01-19T06:37:39.986Z,94039.00
2023-01-19T06:38:39.715Z,94043.00
2023-01-19T06:39:39.975Z,94043.00
2023-01-19T06:40:39.689Z,94045.00
2023-01-19T06:41:39.701Z,94047.00
2023-01-19T06:42:39.739Z,94045.00
2023-01-19T06:43:39.665Z,94047.00
2023-01-19T06:44:39.968Z,94051.00
2023-01-19T06:45:39.696Z,94047.00
2023-01-19T06:46:39.668Z,94051.00
2023-01-19T06:47:39.983Z,94053.00
2023-01-19T06:48:39.620Z,94051.00
2023-01-19T06:49:39.988Z,94053.00
2023-01-19T06:50:39.604Z,94057.00
2023-01-19T06:51:39.593Z,94055.00
2023-01-19T06:52:39.605Z,94055.00
2023-01-19T06:53:42.797Z,94059.00
2023-01-19T06:54:39.992Z,94057.00
2023-01-19T06:55:39.554Z,94063.00
2023-01-19T06:56:39.554Z,94061.00
2023-01-19T06:57:39.563Z,94063.00
2023-01-19T06:58:39.568Z,94061.00
2023-01-19T07:01:39.705Z,94065.00
2023-01-19T07:03:11.396Z,94066.00
2023-01-19T07:03:39.974Z,94066.00
2023-01-19T07:04:39.472Z,94068.00
2023-01-19T07:05:39.461Z,94068.00
2023-01-19T07:06:39.453Z,94066.00
2023-01-19T07:08:39.433Z,94070.00
2023-01-19T07:09:39.430Z,94068.00
2023-01-19T07:11:27.173Z,94070.00
2023-01-19T07:11:42.634Z,94070.00
2023-01-19T07:12:39.517Z,94068.00
2023-01-19T07:13:39.447Z,94072.00
2023-01-19T07:14:39.392Z,94070.00
2023-01-19T07:15:39.391Z,94068.00
2023-01-19T07:16:39.364Z,94068.00
2023-01-19T07:17:39.500Z,94068.00
2023-01-19T07:18:40.356Z,94068.00
2023-01-19T07:19:39.338Z,94068.00
2023-01-19T07:20:39.326Z,94068.00
2023-01-19T07:21:39.318Z,94070.00
2023-01-19T07:22:39.487Z,94068.00
2023-01-19T07:23:39.314Z,94074.00
2023-01-19T07:24:39.283Z,94076.00
2023-01-19T07:25:39.291Z,94082.00
2023-01-19T07:26:39.265Z,94084.00
2023-01-19T07:27:39.657Z,94082.00
2023-01-19T07:28:39.305Z,94086.00
2023-01-19T07:29:39.315Z,94084.00
2023-01-19T07:30:39.426Z,94084.00
2023-01-19T07:31:39.730Z,94080.00
2023-01-19T07:32:39.267Z,94086.00
2023-01-19T07:33:39.210Z,94084.00
2023-01-19T07:35:39.239Z,94092.00
2023-01-19T07:36:39.214Z,94090.00
2023-01-19T07:37:39.208Z,94088.00
2023-01-19T07:38:39.604Z,94086.00
2023-01-19T07:39:39.176Z,94088.00
2023-01-19T07:40:39.219Z,94092.00
2023-01-19T07:42:41.022Z,94088.00
2023-01-19T07:43:39.189Z,94092.00
2023-01-19T07:44:39.171Z,94092.00
2023-01-19T07:45:39.762Z,94098.00
2023-01-19T07:46:39.130Z,94100.00
2023-01-19T07:47:39.137Z,94104.00
2023-01-19T07:48:39.098Z,94104.00
2023-01-19T07:49:39.092Z,94106.00
2023-01-19T07:50:39.560Z,94112.00
2023-01-19T07:51:41.113Z,94112.00
2023-01-19T07:52:39.088Z,94112.00
2023-01-19T07:53:42.756Z,94112.00
2023-01-19T07:54:40.057Z,94117.00
2023-01-19T07:55:39.152Z,94119.00
2023-01-19T07:56:40.014Z,94127.00
2023-01-19T07:57:39.019Z,94117.00
2023-01-19T07:58:39.056Z,94119.00
2023-01-19T07:59:40.230Z,94129.00
2023-01-19T08:00:38.987Z,94127.00
2023-01-19T08:01:40.144Z,94119.00
2023-01-19T08:02:38.973Z,94117.00
2023-01-19T08:03:39.031Z,94117.00
2023-01-19T08:04:39.050Z,94117.00
2023-01-19T08:05:39.000Z,94127.00
2023-01-19T08:06:38.989Z,94117.00
2023-01-19T08:07:38.953Z,94127.00
2023-01-19T08:08:39.922Z,94127.00
2023-01-19T08:09:38.902Z,94131.00
2023-01-19T08:10:38.999Z,94129.00
2023-01-19T08:11:38.893Z,94131.00
2023-01-19T08:12:39.036Z,94129.00
2023-01-19T08:13:38.874Z,94131.00
2023-01-19T08:14:38.845Z,94135.00
2023-01-19T08:15:39.899Z,94135.00
2023-01-19T08:16:38.921Z,94137.00
2023-01-19T08:17:39.040Z,94143.00
2023-01-19T08:18:38.902Z,94145.00
2023-01-19T08:19:41.515Z,94147.00
2023-01-19T08:20:38.890Z,94145.00
2023-01-19T08:21:39.131Z,94145.00
2023-01-19T08:23:39.081Z,94147.00
2023-01-19T08:24:38.862Z,94147.00
2023-01-19T08:25:38.837Z,94145.00
2023-01-19T08:26:39.849Z,94151.00
2023-01-19T08:27:38.807Z,94151.00
2023-01-19T08:28:39.040Z,94157.00
2023-01-19T08:29:39.738Z,94158.00
2023-01-19T08:30:38.902Z,94162.00
2023-01-19T08:31:38.990Z,94162.00
2023-01-19T08:32:38.783Z,94162.00
2023-01-19T08:33:39.047Z,94164.00
2023-01-19T08:35:39.760Z,94162.00
2023-01-19T08:36:39.739Z,94160.00
2023-01-19T08:37:39.714Z,94162.00
2023-01-19T08:38:39.058Z,94160.00
2023-01-19T08:39:38.717Z,94166.00
2023-01-19T08:40:38.848Z,94166.00
2023-01-19T08:41:38.729Z,94166.00
2023-01-19T08:42:38.705Z,94168.00
2023-01-19T08:43:39.053Z,94170.00
2023-01-19T08:44:43.894Z,94166.00
2023-01-19T08:45:38.671Z,94166.00
2023-01-19T08:46:38.674Z,94170.00
2023-01-19T08:47:38.743Z,94170.00
2023-01-19T08:48:40.019Z,94166.00
2023-01-19T08:49:39.058Z,94168.00
2023-01-19T08:50:38.693Z,94166.00
2023-01-19T08:51:38.690Z,94168.00
2023-01-19T08:52:38.655Z,94168.00
2023-01-19T08:53:38.625Z,94166.00
2023-01-19T08:54:39.075Z,94170.00
2023-01-19T08:55:38.633Z,94172.00
2023-01-19T08:56:38.634Z,94170.00
2023-01-19T08:57:38.612Z,94170.00
2023-01-19T08:58:39.574Z,94174.00
2023-01-19T08:59:39.017Z,94172.00
2023-01-19T09:00:38.550Z,94170.00
2023-01-19T09:01:38.723Z,94178.00
2023-01-19T09:02:39.153Z,94178.00
2023-01-19T09:03:38.548Z,94180.00
2023-01-19T09:04:39.041Z,94180.00
2023-01-19T09:05:38.518Z,94178.00
2023-01-19T09:06:38.499Z,94180.00
2023-01-19T09:07:38.502Z,94182.00
2023-01-19T09:08:38.491Z,94180.00
2023-01-19T09:09:38.520Z,94182.00
2023-01-19T09:10:38.495Z,94184.00
2023-01-19T09:11:38.469Z,94184.00
2023-01-19T09:12:38.524Z,94186.00
2023-01-19T09:13:38.428Z,94188.00
2023-01-19T09:14:38.528Z,94190.00
2023-01-19T09:15:38.416Z,94194.00
2023-01-19T09:16:38.411Z,94196.00
2023-01-19T09:17:38.431Z,94198.00
2023-01-19T09:18:38.390Z,94198.00
2023-01-19T09:19:38.382Z,94202.00
2023-01-19T09:20:38.372Z,94202.00
2023-01-19T09:21:38.362Z,94202.00
2023-01-19T09:22:38.563Z,94206.00
2023-01-19T09:23:38.351Z,94204.00
2023-01-19T09:24:38.338Z,94208.00
2023-01-19T09:25:38.340Z,94206.00
2023-01-19T09:26:38.349Z,94210.00
2023-01-19T09:27:38.533Z,94208.00
2023-01-19T09:28:38.307Z,94212.00
2023-01-19T09:29:38.287Z,94215.00
2023-01-19T09:30:38.294Z,94212.00
2023-01-19T09:31:38.317Z,94215.00
2023-01-19T09:32:38.530Z,94215.00
2023-01-19T09:33:38.255Z,94221.00
2023-01-19T09:34:38.241Z,94219.00
2023-01-19T09:35:38.533Z,94221.00
2023-01-19T09:36:38.227Z,94221.00
2023-01-19T09:37:38.250Z,94221.00
2023-01-19T09:38:38.215Z,94223.00
2023-01-19T09:39:38.221Z,94221.00
2023-01-19T09:40:41.925Z,94221.00
2023-01-19T09:41:39.196Z,94219.00
2023-01-19T09:42:38.227Z,94217.00
2023-01-19T09:43:38.163Z,94217.00
2023-01-19T09:44:38.191Z,94221.00
2023-01-19T09:45:39.054Z,94215.00
2023-01-19T09:46:39.630Z,94221.00
2023-01-19T09:47:38.128Z,94221.00
2023-01-19T09:48:38.121Z,94223.00
2023-01-19T09:49:38.129Z,94223.00
2023-01-19T09:50:38.098Z,94225.00
2023-01-19T09:51:38.534Z,94227.00
2023-01-19T09:52:38.540Z,94227.00
2023-01-19T09:53:38.074Z,94223.00
2023-01-19T09:54:38.073Z,94221.00
2023-01-19T09:55:38.061Z,94219.00
2023-01-19T09:56:38.041Z,94219.00
2023-01-19T09:57:38.035Z,94215.00
2023-01-19T09:58:38.099Z,94213.00
2023-01-19T09:59:38.021Z,94215.00
2023-01-19T10:00:38.159Z,94215.00
2023-01-19T10:01:38.068Z,94213.00
2023-01-19T10:02:38.021Z,94212.00
2023-01-19T10:03:37.981Z,94212.00
2023-01-19T10:04:37.967Z,94215.00
2023-01-19T10:05:38.051Z,94213.00
2023-01-19T10:06:38.051Z,94213.00
2023-01-19T10:07:37.943Z,94217.00
2023-01-19T10:08:37.932Z,94217.00
2023-01-19T10:09:37.923Z,94217.00
2023-01-19T10:10:38.050Z,94215.00
2023-01-19T10:11:51.308Z,94219.00
2023-01-19T10:12:37.911Z,94217.00
2023-01-19T10:13:37.886Z,94219.00
2023-01-19T10:14:37.909Z,94219.00
2023-01-19T10:15:37.873Z,94217.00
2023-01-19T10:16:37.860Z,94217.00
2023-01-19T10:17:37.856Z,94217.00
2023-01-19T10:18:37.840Z,94221.00
2023-01-19T10:19:37.824Z,94217.00
2023-01-19T10:20:38.138Z,94217.00
2023-01-19T10:21:37.835Z,94217.00
2023-01-19T10:22:37.810Z,94217.00
2023-01-19T10:23:37.795Z,94217.00
2023-01-19T10:24:37.783Z,94215.00
2023-01-19T10:25:37.809Z,94217.00
2023-01-19T10:26:38.050Z,94213.00
2023-01-19T10:27:37.815Z,94213.00
2023-01-19T10:28:37.749Z,94215.00
2023-01-19T10:29:37.743Z,94215.00
2023-01-19T10:30:37.813Z,94217.00
2023-01-19T10:31:38.199Z,94217.00
2023-01-19T10:32:37.738Z,94217.00
2023-01-19T10:33:37.717Z,94215.00
2023-01-19T10:34:37.701Z,94215.00
2023-01-19T10:35:37.688Z,94217.00
2023-01-19T10:36:38.110Z,94217.00
2023-01-19T10:37:37.734Z,94217.00
2023-01-19T10:38:37.664Z,94215.00
2023-01-19T10:39:38.922Z,94213.00
2023-01-19T10:40:37.674Z,94217.00
2023-01-19T10:41:38.074Z,94213.00
2023-01-19T10:42:37.630Z,94215.00
2023-01-19T10:43:37.645Z,94213.00
2023-01-19T10:44:37.643Z,94213.00
2023-01-19T10:45:37.621Z,94213.00
2023-01-19T10:46:38.135Z,94212.00
2023-01-19T10:47:37.633Z,94212.00
2023-01-19T10:48:37.567Z,94210.00
2023-01-19T10:49:37.633Z,94210.00
2023-01-19T10:50:37.553Z,94208.00
2023-01-19T10:51:37.543Z,94210.00
2023-01-19T10:52:37.555Z,94210.00
2023-01-19T10:53:37.588Z,94210.00
2023-01-19T10:54:37.506Z,94208.00
2023-01-19T10:55:37.572Z,94208.00
2023-01-19T10:56:37.522Z,94206.00
2023-01-19T10:57:37.487Z,94206.00
2023-01-19T10:58:37.502Z,94202.00
2023-01-19T10:59:37.608Z,94204.00
2023-01-19T11:00:37.575Z,94202.00
2023-01-19T11:01:38.094Z,94204.00
2023-01-19T11:02:37.691Z,94202.00
2023-01-19T11:03:37.508Z,94204.00
2023-01-19T11:04:37.413Z,94200.00
2023-01-19T11:05:37.399Z,94198.00
2023-01-19T11:06:37.560Z,94200.00
2023-01-19T11:07:37.390Z,94200.00
2023-01-19T11:08:37.382Z,94198.00
2023-01-19T11:09:37.368Z,94198.00
2023-01-19T11:10:37.362Z,94198.00
2023-01-19T11:11:37.567Z,94198.00
2023-01-19T11:12:37.448Z,94198.00
2023-01-19T11:13:37.474Z,94196.00
2023-01-19T11:14:37.347Z,94194.00
2023-01-19T11:15:37.325Z,94196.00
2023-01-19T11:16:37.638Z,94194.00
2023-01-19T11:17:37.307Z,94196.00
2023-01-19T11:18:37.344Z,94194.00
2023-01-19T11:19:37.284Z,94194.00
2023-01-19T11:20:37.276Z,94196.00
2023-01-19T11:21:37.566Z,94192.00
2023-01-19T11:22:37.285Z,94190.00
2023-01-19T11:23:37.237Z,94188.00
2023-01-19T11:24:37.382Z,94188.00
2023-01-19T11:25:37.216Z,94190.00
2023-01-19T11:26:37.572Z,94188.00
2023-01-19T11:27:37.595Z,94190.00
2023-01-19T11:28:37.192Z,94188.00
2023-01-19T11:29:37.211Z,94186.00
2023-01-19T11:30:37.187Z,94186.00
2023-01-19T11:31:37.585Z,94186.00
2023-01-19T11:32:37.324Z,94190.00
2023-01-19T11:33:37.155Z,94182.00
2023-01-19T11:34:37.724Z,94184.00
2023-01-19T11:35:37.414Z,94186.00
2023-01-19T11:36:37.609Z,94186.00
2023-01-19T11:37:37.105Z,94180.00
2023-01-19T11:38:37.541Z,94180.00
2023-01-19T11:39:37.503Z,94180.00
2023-01-19T11:40:37.087Z,94178.00
2023-01-19T11:41:37.112Z,94182.00
2023-01-19T11:42:37.601Z,94178.00
2023-01-19T11:43:48.554Z,94174.00
2023-01-19T11:44:37.052Z,94172.00
2023-01-19T11:45:37.186Z,94174.00
2023-01-19T11:46:37.019Z,94170.00
2023-01-19T11:47:37.037Z,94172.00
2023-01-19T11:48:37.991Z,94170.00
2023-01-19T11:49:36.996Z,94172.00
2023-01-19T11:50:37.048Z,94170.00
2023-01-19T11:51:37.215Z,94168.00
2023-01-19T11:52:36.968Z,94166.00
2023-01-19T11:53:36.955Z,94168.00
2023-01-19T11:54:36.989Z,94166.00
2023-01-19T11:55:36.947Z,94166.00
2023-01-19T11:56:36.947Z,94164.00
2023-01-19T11:57:36.919Z,94162.00
2023-01-19T11:58:36.912Z,94162.00
2023-01-19T11:59:36.901Z,94164.00
2023-01-19T12:00:36.927Z,94162.00
2023-01-19T12:01:36.911Z,94166.00
2023-01-19T12:02:37.088Z,94166.00
2023-01-19T12:03:36.935Z,94164.00
2023-01-19T12:04:36.858Z,94166.00
2023-01-19T12:05:36.863Z,94160.00
2023-01-19T12:06:36.869Z,94160.00
2023-01-19T12:07:37.146Z,94160.00
2023-01-19T12:08:36.827Z,94160.00
2023-01-19T12:09:36.813Z,94160.00
2023-01-19T12:10:36.800Z,94158.00
2023-01-19T12:11:36.796Z,94158.00
2023-01-19T12:12:37.085Z,94157.00
2023-01-19T12:13:36.769Z,94162.00
2023-01-19T12:14:36.769Z,94157.00
2023-01-19T12:15:36.750Z,94158.00
2023-01-19T12:16:36.787Z,94157.00
2023-01-19T12:17:37.095Z,94157.00
2023-01-19T12:18:36.732Z,94158.00
2023-01-19T12:19:36.714Z,94153.00
2023-01-19T12:20:36.700Z,94155.00
2023-01-19T12:21:37.118Z,94157.00
2023-01-19T12:22:36.728Z,94155.00
2023-01-19T12:23:36.679Z,94155.00
2023-01-19T12:24:36.798Z,94157.00
2023-01-19T12:25:36.668Z,94158.00
2023-01-19T12:26:36.649Z,94158.00
2023-01-19T12:27:36.658Z,94158.00
2023-01-19T12:28:36.633Z,94160.00
2023-01-19T12:29:36.621Z,94157.00
2023-01-19T12:30:36.769Z,94158.00
2023-01-19T12:31:36.762Z,94157.00
2023-01-19T12:32:37.093Z,94157.00
2023-01-19T12:33:36.584Z,94157.00
2023-01-19T12:34:36.576Z,94155.00
2023-01-19T12:35:36.572Z,94155.00
2023-01-19T12:36:36.559Z,94155.00
2023-01-19T12:37:36.615Z,94155.00